sensor_id;sensor_type;location;lat;lon;timestamp;temperature;humidity
41533;DHT22;27262;-35.248;149.138;2023-07-20T00:01:53;15.70;58.40
41533;DHT22;27262;-35.248;149.138;2023-07-20T00:04:24;15.70;58.40
41533;DHT22;27262;-35.248;149.138;2023-07-20T00:06:55;15.70;58.40
41533;DHT22;27262;-35.248;149.138;2023-07-20T00:09:25;15.70;58.40
41533;DHT22;27262;-35.248;149.138;2023-07-20T00:11:56;15.70;58.50
41533;DHT22;27262;-35.248;149.138;2023-07-20T00:14:27;15.60;58.50
41533;DHT22;27262;-35.248;149.138;2023-07-20T00:16:58;15.60;58.50
41533;DHT22;27262;-35.248;149.138;2023-07-20T00:19:29;15.60;58.50
41533;DHT22;27262;-35.248;149.138;2023-07-20T00:22:01;15.60;58.50
41533;DHT22;27262;-35.248;149.138;2023-07-20T00:24:34;15.60;58.50
41533;DHT22;27262;-35.248;149.138;2023-07-20T00:27:04;15.50;58.50
41533;DHT22;27262;-35.248;149.138;2023-07-20T00:29:35;15.60;58.50
41533;DHT22;27262;-35.248;149.138;2023-07-20T00:32:06;15.50;58.50
41533;DHT22;27262;-35.248;149.138;2023-07-20T00:34:37;15.50;58.50
41533;DHT22;27262;-35.248;149.138;2023-07-20T00:37:07;15.50;58.50
41533;DHT22;27262;-35.248;149.138;2023-07-20T00:39:37;15.50;58.50
41533;DHT22;27262;-35.248;149.138;2023-07-20T00:42:08;15.50;58.50
41533;DHT22;27262;-35.248;149.138;2023-07-20T00:44:38;15.50;58.50
41533;DHT22;27262;-35.248;149.138;2023-07-20T00:47:09;15.50;58.50
41533;DHT22;27262;-35.248;149.138;2023-07-20T00:49:40;15.50;58.50
41533;DHT22;27262;-35.248;149.138;2023-07-20T00:52:11;15.40;58.70
41533;DHT22;27262;-35.248;149.138;2023-07-20T00:54:44;15.50;58.50
41533;DHT22;27262;-35.248;149.138;2023-07-20T00:57:15;15.40;58.50
41533;DHT22;27262;-35.248;149.138;2023-07-20T00:59:45;15.40;58.50
41533;DHT22;27262;-35.248;149.138;2023-07-20T01:02:16;15.40;58.50
41533;DHT22;27262;-35.248;149.138;2023-07-20T01:04:46;15.40;58.60
41533;DHT22;27262;-35.248;149.138;2023-07-20T01:10:36;15.40;58.40
41533;DHT22;27262;-35.248;149.138;2023-07-20T01:13:10;15.40;58.60
41533;DHT22;27262;-35.248;149.138;2023-07-20T01:15:42;15.30;58.60
41533;DHT22;27262;-35.248;149.138;2023-07-20T01:18:18;15.30;58.60
41533;DHT22;27262;-35.248;149.138;2023-07-20T01:20:49;15.30;58.60
41533;DHT22;27262;-35.248;149.138;2023-07-20T01:29:50;15.30;58.60
41533;DHT22;27262;-35.248;149.138;2023-07-20T01:32:25;15.20;58.70
41533;DHT22;27262;-35.248;149.138;2023-07-20T01:34:57;15.20;58.70
41533;DHT22;27262;-35.248;149.138;2023-07-20T01:37:29;15.20;58.60
41533;DHT22;27262;-35.248;149.138;2023-07-20T01:40:00;15.20;58.60
41533;DHT22;27262;-35.248;149.138;2023-07-20T01:42:32;15.20;58.70
41533;DHT22;27262;-35.248;149.138;2023-07-20T01:45:02;15.20;58.60
41533;DHT22;27262;-35.248;149.138;2023-07-20T01:47:33;15.20;58.60
41533;DHT22;27262;-35.248;149.138;2023-07-20T01:50:04;15.20;58.60
41533;DHT22;27262;-35.248;149.138;2023-07-20T01:52:35;15.20;58.60
41533;DHT22;27262;-35.248;149.138;2023-07-20T01:55:06;15.20;58.70
41533;DHT22;27262;-35.248;149.138;2023-07-20T01:57:37;15.20;58.70
41533;DHT22;27262;-35.248;149.138;2023-07-20T02:00:08;15.20;58.70
41533;DHT22;27262;-35.248;149.138;2023-07-20T02:02:39;15.20;58.70
41533;DHT22;27262;-35.248;149.138;2023-07-20T02:05:12;15.10;58.60
41533;DHT22;27262;-35.248;149.138;2023-07-20T02:07:43;15.10;58.60
41533;DHT22;27262;-35.248;149.138;2023-07-20T02:10:13;15.10;59.30
41533;DHT22;27262;-35.248;149.138;2023-07-20T02:12:44;15.10;58.70
41533;DHT22;27262;-35.248;149.138;2023-07-20T02:15:15;15.10;58.70
41533;DHT22;27262;-35.248;149.138;2023-07-20T02:17:49;15.10;58.70
41533;DHT22;27262;-35.248;149.138;2023-07-20T02:20:19;15.10;58.70
41533;DHT22;27262;-35.248;149.138;2023-07-20T02:22:50;15.10;58.70
41533;DHT22;27262;-35.248;149.138;2023-07-20T02:25:21;15.10;58.70
41533;DHT22;27262;-35.248;149.138;2023-07-20T02:27:51;15.10;58.70
41533;DHT22;27262;-35.248;149.138;2023-07-20T02:30:22;15.10;58.70
41533;DHT22;27262;-35.248;149.138;2023-07-20T02:32:52;15.10;58.70
41533;DHT22;27262;-35.248;149.138;2023-07-20T02:35:23;15.10;58.70
41533;DHT22;27262;-35.248;149.138;2023-07-20T02:37:54;15.10;58.80
41533;DHT22;27262;-35.248;149.138;2023-07-20T02:40:24;15.10;58.70
41533;DHT22;27262;-35.248;149.138;2023-07-20T02:42:54;15.10;58.70
41533;DHT22;27262;-35.248;149.138;2023-07-20T02:45:25;15.10;58.80
41533;DHT22;27262;-35.248;149.138;2023-07-20T02:47:55;15.10;58.80
41533;DHT22;27262;-35.248;149.138;2023-07-20T02:50:26;15.10;58.80
41533;DHT22;27262;-35.248;149.138;2023-07-20T02:52:56;15.10;58.80
41533;DHT22;27262;-35.248;149.138;2023-07-20T02:55:27;15.00;58.80
41533;DHT22;27262;-35.248;149.138;2023-07-20T02:57:57;15.00;59.40
41533;DHT22;27262;-35.248;149.138;2023-07-20T03:00:27;15.00;58.80
41533;DHT22;27262;-35.248;149.138;2023-07-20T03:02:58;15.00;58.80
41533;DHT22;27262;-35.248;149.138;2023-07-20T03:05:28;15.00;58.80
41533;DHT22;27262;-35.248;149.138;2023-07-20T03:07:59;15.00;58.80
41533;DHT22;27262;-35.248;149.138;2023-07-20T03:10:39;15.00;58.80
41533;DHT22;27262;-35.248;149.138;2023-07-20T03:13:10;15.00;58.80
41533;DHT22;27262;-35.248;149.138;2023-07-20T03:15:40;15.00;58.90
41533;DHT22;27262;-35.248;149.138;2023-07-20T03:18:11;15.00;58.80
41533;DHT22;27262;-35.248;149.138;2023-07-20T03:20:41;15.00;58.90
41533;DHT22;27262;-35.248;149.138;2023-07-20T03:23:12;15.00;58.90
41533;DHT22;27262;-35.248;149.138;2023-07-20T03:25:43;15.00;58.80
41533;DHT22;27262;-35.248;149.138;2023-07-20T03:28:13;15.00;58.90
41533;DHT22;27262;-35.248;149.138;2023-07-20T03:30:45;15.00;58.90
41533;DHT22;27262;-35.248;149.138;2023-07-20T03:33:16;15.00;58.90
41533;DHT22;27262;-35.248;149.138;2023-07-20T03:35:46;15.00;58.90
41533;DHT22;27262;-35.248;149.138;2023-07-20T03:38:16;15.00;58.90
41533;DHT22;27262;-35.248;149.138;2023-07-20T03:41:00;15.00;58.90
41533;DHT22;27262;-35.248;149.138;2023-07-20T03:43:30;15.00;58.90
41533;DHT22;27262;-35.248;149.138;2023-07-20T03:46:00;15.00;59.50
41533;DHT22;27262;-35.248;149.138;2023-07-20T03:48:36;15.00;58.90
41533;DHT22;27262;-35.248;149.138;2023-07-20T03:51:06;15.00;58.90
41533;DHT22;27262;-35.248;149.138;2023-07-20T03:53:37;15.00;58.90
41533;DHT22;27262;-35.248;149.138;2023-07-20T03:56:08;15.00;58.90
41533;DHT22;27262;-35.248;149.138;2023-07-20T03:58:38;15.00;58.90
41533;DHT22;27262;-35.248;149.138;2023-07-20T04:01:09;15.00;58.90
41533;DHT22;27262;-35.248;149.138;2023-07-20T04:03:39;15.00;58.90
41533;DHT22;27262;-35.248;149.138;2023-07-20T04:06:09;15.00;58.90
41533;DHT22;27262;-35.248;149.138;2023-07-20T04:08:40;15.00;58.90
41533;DHT22;27262;-35.248;149.138;2023-07-20T04:11:10;15.00;58.90
41533;DHT22;27262;-35.248;149.138;2023-07-20T04:13:40;15.00;58.90
41533;DHT22;27262;-35.248;149.138;2023-07-20T04:16:11;15.00;59.00
41533;DHT22;27262;-35.248;149.138;2023-07-20T04:18:41;15.00;59.00
41533;DHT22;27262;-35.248;149.138;2023-07-20T04:21:11;15.00;59.00
41533;DHT22;27262;-35.248;149.138;2023-07-20T04:23:42;15.00;59.00
41533;DHT22;27262;-35.248;149.138;2023-07-20T04:26:12;15.00;59.00
41533;DHT22;27262;-35.248;149.138;2023-07-20T04:28:44;15.00;59.00
41533;DHT22;27262;-35.248;149.138;2023-07-20T04:31:15;15.00;59.00
41533;DHT22;27262;-35.248;149.138;2023-07-20T04:33:46;15.00;59.00
41533;DHT22;27262;-35.248;149.138;2023-07-20T04:36:17;15.00;59.00
41533;DHT22;27262;-35.248;149.138;2023-07-20T04:38:49;15.00;59.00
41533;DHT22;27262;-35.248;149.138;2023-07-20T04:41:19;15.00;59.00
41533;DHT22;27262;-35.248;149.138;2023-07-20T04:43:50;15.00;59.00
41533;DHT22;27262;-35.248;149.138;2023-07-20T04:46:20;15.00;59.00
41533;DHT22;27262;-35.248;149.138;2023-07-20T04:48:51;15.00;59.00
41533;DHT22;27262;-35.248;149.138;2023-07-20T04:51:22;15.00;59.10
41533;DHT22;27262;-35.248;149.138;2023-07-20T04:53:52;15.00;59.10
41533;DHT22;27262;-35.248;149.138;2023-07-20T04:56:22;15.00;59.10
41533;DHT22;27262;-35.248;149.138;2023-07-20T04:58:53;15.00;59.10
41533;DHT22;27262;-35.248;149.138;2023-07-20T05:01:24;15.00;59.10
41533;DHT22;27262;-35.248;149.138;2023-07-20T05:03:56;15.00;59.10
41533;DHT22;27262;-35.248;149.138;2023-07-20T05:06:26;15.00;59.10
41533;DHT22;27262;-35.248;149.138;2023-07-20T05:08:56;15.00;59.10
41533;DHT22;27262;-35.248;149.138;2023-07-20T05:11:27;15.00;59.10
41533;DHT22;27262;-35.248;149.138;2023-07-20T05:13:57;15.00;59.10
41533;DHT22;27262;-35.248;149.138;2023-07-20T05:16:28;15.00;59.10
41533;DHT22;27262;-35.248;149.138;2023-07-20T05:18:58;15.00;59.10
41533;DHT22;27262;-35.248;149.138;2023-07-20T05:21:28;15.00;59.10
41533;DHT22;27262;-35.248;149.138;2023-07-20T05:23:59;15.00;59.10
41533;DHT22;27262;-35.248;149.138;2023-07-20T05:26:29;15.00;59.10
41533;DHT22;27262;-35.248;149.138;2023-07-20T05:28:59;15.00;59.10
41533;DHT22;27262;-35.248;149.138;2023-07-20T05:31:30;15.00;59.10
41533;DHT22;27262;-35.248;149.138;2023-07-20T05:34:01;15.00;59.10
41533;DHT22;27262;-35.248;149.138;2023-07-20T05:36:31;15.00;59.10
41533;DHT22;27262;-35.248;149.138;2023-07-20T05:39:02;15.00;59.10
41533;DHT22;27262;-35.248;149.138;2023-07-20T05:41:51;15.00;59.10
41533;DHT22;27262;-35.248;149.138;2023-07-20T05:44:30;15.00;59.20
41533;DHT22;27262;-35.248;149.138;2023-07-20T05:47:01;15.00;59.20
41533;DHT22;27262;-35.248;149.138;2023-07-20T05:49:32;15.00;59.20
41533;DHT22;27262;-35.248;149.138;2023-07-20T05:52:03;15.00;59.20
41533;DHT22;27262;-35.248;149.138;2023-07-20T05:54:33;15.00;59.20
41533;DHT22;27262;-35.248;149.138;2023-07-20T05:57:04;15.00;59.20
41533;DHT22;27262;-35.248;149.138;2023-07-20T05:59:34;15.00;59.20
41533;DHT22;27262;-35.248;149.138;2023-07-20T06:02:06;15.00;59.20
41533;DHT22;27262;-35.248;149.138;2023-07-20T06:04:38;15.00;59.20
41533;DHT22;27262;-35.248;149.138;2023-07-20T06:07:09;15.00;59.20
41533;DHT22;27262;-35.248;149.138;2023-07-20T06:09:40;15.00;59.20
41533;DHT22;27262;-35.248;149.138;2023-07-20T06:12:10;15.00;59.20
41533;DHT22;27262;-35.248;149.138;2023-07-20T06:14:41;15.00;59.20
41533;DHT22;27262;-35.248;149.138;2023-07-20T06:17:11;15.00;59.20
41533;DHT22;27262;-35.248;149.138;2023-07-20T06:19:41;15.00;59.20
41533;DHT22;27262;-35.248;149.138;2023-07-20T06:22:12;15.00;59.20
41533;DHT22;27262;-35.248;149.138;2023-07-20T06:24:42;15.00;59.20
41533;DHT22;27262;-35.248;149.138;2023-07-20T06:27:12;15.00;59.20
41533;DHT22;27262;-35.248;149.138;2023-07-20T06:29:43;15.00;59.20
41533;DHT22;27262;-35.248;149.138;2023-07-20T06:32:13;15.00;59.20
41533;DHT22;27262;-35.248;149.138;2023-07-20T06:34:44;15.00;59.20
41533;DHT22;27262;-35.248;149.138;2023-07-20T06:37:14;15.00;59.20
41533;DHT22;27262;-35.248;149.138;2023-07-20T06:39:45;15.00;59.30
41533;DHT22;27262;-35.248;149.138;2023-07-20T06:42:18;15.00;59.30
41533;DHT22;27262;-35.248;149.138;2023-07-20T06:44:48;15.00;59.40
41533;DHT22;27262;-35.248;149.138;2023-07-20T06:47:18;15.10;59.60
41533;DHT22;27262;-35.248;149.138;2023-07-20T06:49:49;15.10;59.60
41533;DHT22;27262;-35.248;149.138;2023-07-20T06:52:19;15.20;59.60
41533;DHT22;27262;-35.248;149.138;2023-07-20T06:54:50;15.20;59.60
41533;DHT22;27262;-35.248;149.138;2023-07-20T06:57:20;15.30;59.50
41533;DHT22;27262;-35.248;149.138;2023-07-20T06:59:50;15.30;59.50
41533;DHT22;27262;-35.248;149.138;2023-07-20T07:02:21;15.30;59.40
41533;DHT22;27262;-35.248;149.138;2023-07-20T07:04:51;15.30;59.40
41533;DHT22;27262;-35.248;149.138;2023-07-20T07:07:25;15.40;59.40
41533;DHT22;27262;-35.248;149.138;2023-07-20T07:09:56;15.40;59.30
41533;DHT22;27262;-35.248;149.138;2023-07-20T07:12:26;15.50;59.40
41533;DHT22;27262;-35.248;149.138;2023-07-20T07:14:57;15.50;59.40
41533;DHT22;27262;-35.248;149.138;2023-07-20T07:17:28;15.50;59.40
41533;DHT22;27262;-35.248;149.138;2023-07-20T07:20:01;15.50;59.30
41533;DHT22;27262;-35.248;149.138;2023-07-20T07:22:36;15.60;59.30
41533;DHT22;27262;-35.248;149.138;2023-07-20T07:25:06;15.60;59.20
41533;DHT22;27262;-35.248;149.138;2023-07-20T07:27:37;15.60;59.20
41533;DHT22;27262;-35.248;149.138;2023-07-20T07:30:08;15.60;59.20
41533;DHT22;27262;-35.248;149.138;2023-07-20T07:32:38;15.60;59.20
41533;DHT22;27262;-35.248;149.138;2023-07-20T07:35:09;15.70;59.40
41533;DHT22;27262;-35.248;149.138;2023-07-20T07:37:39;15.70;59.40
41533;DHT22;27262;-35.248;149.138;2023-07-20T07:40:30;15.70;59.40
41533;DHT22;27262;-35.248;149.138;2023-07-20T07:43:00;15.70;59.40
41533;DHT22;27262;-35.248;149.138;2023-07-20T07:45:33;15.70;59.40
41533;DHT22;27262;-35.248;149.138;2023-07-20T07:48:06;15.70;59.40
41533;DHT22;27262;-35.248;149.138;2023-07-20T07:50:36;15.80;59.40
41533;DHT22;27262;-35.248;149.138;2023-07-20T07:53:08;15.80;59.40
41533;DHT22;27262;-35.248;149.138;2023-07-20T07:55:39;15.80;59.40
41533;DHT22;27262;-35.248;149.138;2023-07-20T07:58:10;15.80;60.10
41533;DHT22;27262;-35.248;149.138;2023-07-20T08:00:43;15.90;59.40
41533;DHT22;27262;-35.248;149.138;2023-07-20T08:03:14;15.80;59.30
41533;DHT22;27262;-35.248;149.138;2023-07-20T08:05:44;15.80;59.30
41533;DHT22;27262;-35.248;149.138;2023-07-20T08:08:15;15.90;59.40
41533;DHT22;27262;-35.248;149.138;2023-07-20T08:10:53;15.90;59.30
41533;DHT22;27262;-35.248;149.138;2023-07-20T08:13:24;15.90;59.30
41533;DHT22;27262;-35.248;149.138;2023-07-20T08:15:55;15.90;59.30
41533;DHT22;27262;-35.248;149.138;2023-07-20T08:18:25;15.90;59.30
41533;DHT22;27262;-35.248;149.138;2023-07-20T08:20:55;15.90;59.30
41533;DHT22;27262;-35.248;149.138;2023-07-20T08:23:26;15.90;59.20
41533;DHT22;27262;-35.248;149.138;2023-07-20T08:25:57;15.90;59.20
41533;DHT22;27262;-35.248;149.138;2023-07-20T08:28:27;15.90;59.10
41533;DHT22;27262;-35.248;149.138;2023-07-20T08:30:58;16.00;59.20
41533;DHT22;27262;-35.248;149.138;2023-07-20T08:33:29;16.00;59.20
41533;DHT22;27262;-35.248;149.138;2023-07-20T08:36:03;16.00;59.10
41533;DHT22;27262;-35.248;149.138;2023-07-20T08:38:34;16.00;59.10
41533;DHT22;27262;-35.248;149.138;2023-07-20T08:41:04;16.00;59.70
41533;DHT22;27262;-35.248;149.138;2023-07-20T08:43:36;16.00;59.20
41533;DHT22;27262;-35.248;149.138;2023-07-20T08:46:07;16.00;59.20
41533;DHT22;27262;-35.248;149.138;2023-07-20T08:48:39;16.00;59.30
41533;DHT22;27262;-35.248;149.138;2023-07-20T08:51:11;16.00;59.30
41533;DHT22;27262;-35.248;149.138;2023-07-20T08:53:42;16.10;59.30
41533;DHT22;27262;-35.248;149.138;2023-07-20T08:56:14;16.10;59.40
41533;DHT22;27262;-35.248;149.138;2023-07-20T08:58:46;16.10;59.20
41533;DHT22;27262;-35.248;149.138;2023-07-20T09:01:18;16.10;59.30
41533;DHT22;27262;-35.248;149.138;2023-07-20T09:03:49;16.10;59.30
41533;DHT22;27262;-35.248;149.138;2023-07-20T09:06:20;16.20;59.30
41533;DHT22;27262;-35.248;149.138;2023-07-20T09:08:51;16.20;59.30
41533;DHT22;27262;-35.248;149.138;2023-07-20T09:11:21;16.10;59.30
41533;DHT22;27262;-35.248;149.138;2023-07-20T09:14:09;16.20;59.50
41533;DHT22;27262;-35.248;149.138;2023-07-20T09:16:50;16.30;59.30
41533;DHT22;27262;-35.248;149.138;2023-07-20T09:19:21;16.30;59.50
41533;DHT22;27262;-35.248;149.138;2023-07-20T09:21:52;16.30;59.50
41533;DHT22;27262;-35.248;149.138;2023-07-20T09:24:23;16.40;59.50
41533;DHT22;27262;-35.248;149.138;2023-07-20T09:26:53;16.50;59.40
41533;DHT22;27262;-35.248;149.138;2023-07-20T09:29:24;16.50;59.30
41533;DHT22;27262;-35.248;149.138;2023-07-20T09:32:02;16.50;59.10
41533;DHT22;27262;-35.248;149.138;2023-07-20T09:34:32;16.60;59.00
41533;DHT22;27262;-35.248;149.138;2023-07-20T09:37:07;16.60;58.90
41533;DHT22;27262;-35.248;149.138;2023-07-20T09:39:45;16.60;58.80
41533;DHT22;27262;-35.248;149.138;2023-07-20T09:42:20;16.70;58.70
41533;DHT22;27262;-35.248;149.138;2023-07-20T09:44:54;16.70;58.70
41533;DHT22;27262;-35.248;149.138;2023-07-20T09:47:25;16.70;58.60
41533;DHT22;27262;-35.248;149.138;2023-07-20T09:50:00;16.70;58.50
41533;DHT22;27262;-35.248;149.138;2023-07-20T09:52:34;16.80;58.40
41533;DHT22;27262;-35.248;149.138;2023-07-20T09:55:12;16.80;58.40
41533;DHT22;27262;-35.248;149.138;2023-07-20T09:57:43;16.80;58.40
41533;DHT22;27262;-35.248;149.138;2023-07-20T10:00:13;16.80;58.40
41533;DHT22;27262;-35.248;149.138;2023-07-20T10:02:50;16.80;58.30
41533;DHT22;27262;-35.248;149.138;2023-07-20T10:05:21;16.90;58.30
41533;DHT22;27262;-35.248;149.138;2023-07-20T10:07:53;16.90;58.20
41533;DHT22;27262;-35.248;149.138;2023-07-20T10:10:26;16.90;58.20
41533;DHT22;27262;-35.248;149.138;2023-07-20T10:12:58;16.90;58.20
41533;DHT22;27262;-35.248;149.138;2023-07-20T10:15:32;16.90;58.20
41533;DHT22;27262;-35.248;149.138;2023-07-20T10:18:13;16.90;58.10
41533;DHT22;27262;-35.248;149.138;2023-07-20T10:20:45;17.00;58.10
41533;DHT22;27262;-35.248;149.138;2023-07-20T10:23:19;17.00;58.10
41533;DHT22;27262;-35.248;149.138;2023-07-20T10:25:51;17.00;58.10
41533;DHT22;27262;-35.248;149.138;2023-07-20T10:28:21;17.00;58.00
41533;DHT22;27262;-35.248;149.138;2023-07-20T10:30:52;17.00;58.00
41533;DHT22;27262;-35.248;149.138;2023-07-20T10:33:23;17.00;58.00
41533;DHT22;27262;-35.248;149.138;2023-07-20T10:35:56;17.00;57.90
41533;DHT22;27262;-35.248;149.138;2023-07-20T10:38:43;17.00;58.00
41533;DHT22;27262;-35.248;149.138;2023-07-20T10:44:04;17.10;58.00
41533;DHT22;27262;-35.248;149.138;2023-07-20T10:46:44;17.10;57.90
41533;DHT22;27262;-35.248;149.138;2023-07-20T10:49:15;17.10;57.90
41533;DHT22;27262;-35.248;149.138;2023-07-20T10:51:48;17.10;57.90
41533;DHT22;27262;-35.248;149.138;2023-07-20T10:56:49;17.10;57.90
41533;DHT22;27262;-35.248;149.138;2023-07-20T10:59:37;17.10;57.90
41533;DHT22;27262;-35.248;149.138;2023-07-20T11:02:12;17.20;57.80
41533;DHT22;27262;-35.248;149.138;2023-07-20T11:04:47;17.10;57.80
41533;DHT22;27262;-35.248;149.138;2023-07-20T11:07:37;17.20;57.90
41533;DHT22;27262;-35.248;149.138;2023-07-20T11:10:14;17.20;57.80
41533;DHT22;27262;-35.248;149.138;2023-07-20T11:13:21;17.20;57.80
41533;DHT22;27262;-35.248;149.138;2023-07-20T11:18:28;17.20;57.80
41533;DHT22;27262;-35.248;149.138;2023-07-20T11:21:00;17.20;57.80
41533;DHT22;27262;-35.248;149.138;2023-07-20T11:23:32;17.20;57.80
41533;DHT22;27262;-35.248;149.138;2023-07-20T11:26:03;17.20;57.80
41533;DHT22;27262;-35.248;149.138;2023-07-20T11:28:34;17.20;57.80
41533;DHT22;27262;-35.248;149.138;2023-07-20T11:31:05;17.20;57.70
41533;DHT22;27262;-35.248;149.138;2023-07-20T11:33:36;17.30;57.80
41533;DHT22;27262;-35.248;149.138;2023-07-20T11:36:09;17.30;57.80
41533;DHT22;27262;-35.248;149.138;2023-07-20T11:38:42;17.20;57.70
41533;DHT22;27262;-35.248;149.138;2023-07-20T11:41:13;17.30;57.80
41533;DHT22;27262;-35.248;149.138;2023-07-20T11:43:46;17.30;57.70
41533;DHT22;27262;-35.248;149.138;2023-07-20T11:46:17;17.30;57.80
41533;DHT22;27262;-35.248;149.138;2023-07-20T11:48:48;17.30;57.70
41533;DHT22;27262;-35.248;149.138;2023-07-20T11:51:19;17.30;57.70
41533;DHT22;27262;-35.248;149.138;2023-07-20T11:53:50;17.30;57.70
41533;DHT22;27262;-35.248;149.138;2023-07-20T11:56:20;17.30;57.70
41533;DHT22;27262;-35.248;149.138;2023-07-20T11:58:55;17.40;57.70
41533;DHT22;27262;-35.248;149.138;2023-07-20T12:01:34;17.40;57.70
41533;DHT22;27262;-35.248;149.138;2023-07-20T12:04:05;17.40;57.70
41533;DHT22;27262;-35.248;149.138;2023-07-20T12:06:36;17.40;57.70
41533;DHT22;27262;-35.248;149.138;2023-07-20T12:09:14;17.40;57.60
41533;DHT22;27262;-35.248;149.138;2023-07-20T12:11:49;17.40;57.50
41533;DHT22;27262;-35.248;149.138;2023-07-20T12:14:20;17.40;57.60
41533;DHT22;27262;-35.248;149.138;2023-07-20T12:16:53;17.40;57.60
41533;DHT22;27262;-35.248;149.138;2023-07-20T12:19:25;17.40;57.60
41533;DHT22;27262;-35.248;149.138;2023-07-20T12:21:58;17.40;57.60
41533;DHT22;27262;-35.248;149.138;2023-07-20T12:24:29;17.40;57.60
41533;DHT22;27262;-35.248;149.138;2023-07-20T12:26:59;17.40;57.50
41533;DHT22;27262;-35.248;149.138;2023-07-20T12:29:30;17.40;57.50
41533;DHT22;27262;-35.248;149.138;2023-07-20T12:32:05;17.50;57.60
41533;DHT22;27262;-35.248;149.138;2023-07-20T12:34:36;17.50;57.60
41533;DHT22;27262;-35.248;149.138;2023-07-20T12:37:08;17.50;57.60
41533;DHT22;27262;-35.248;149.138;2023-07-20T12:39:39;17.50;57.50
41533;DHT22;27262;-35.248;149.138;2023-07-20T12:42:12;17.50;57.50
41533;DHT22;27262;-35.248;149.138;2023-07-20T12:44:45;17.50;57.50
41533;DHT22;27262;-35.248;149.138;2023-07-20T12:47:16;17.50;57.50
41533;DHT22;27262;-35.248;149.138;2023-07-20T12:49:46;17.60;57.50
41533;DHT22;27262;-35.248;149.138;2023-07-20T12:52:17;17.60;57.50
41533;DHT22;27262;-35.248;149.138;2023-07-20T12:54:48;17.60;57.50
41533;DHT22;27262;-35.248;149.138;2023-07-20T12:57:19;17.60;57.50
41533;DHT22;27262;-35.248;149.138;2023-07-20T12:59:49;17.60;57.60
41533;DHT22;27262;-35.248;149.138;2023-07-20T13:02:20;17.60;57.60
41533;DHT22;27262;-35.248;149.138;2023-07-20T13:04:50;17.50;57.70
41533;DHT22;27262;-35.248;149.138;2023-07-20T13:07:33;17.50;57.80
41533;DHT22;27262;-35.248;149.138;2023-07-20T13:10:07;17.40;57.60
41533;DHT22;27262;-35.248;149.138;2023-07-20T13:12:38;17.40;57.80
41533;DHT22;27262;-35.248;149.138;2023-07-20T13:15:10;17.40;57.80
41533;DHT22;27262;-35.248;149.138;2023-07-20T13:17:40;17.40;57.80
41533;DHT22;27262;-35.248;149.138;2023-07-20T13:20:11;17.30;57.80
41533;DHT22;27262;-35.248;149.138;2023-07-20T13:22:41;17.30;57.90
41533;DHT22;27262;-35.248;149.138;2023-07-20T13:25:12;17.30;57.90
41533;DHT22;27262;-35.248;149.138;2023-07-20T13:27:42;17.30;57.90
41533;DHT22;27262;-35.248;149.138;2023-07-20T13:30:13;17.20;57.90
41533;DHT22;27262;-35.248;149.138;2023-07-20T13:32:47;17.20;57.90
41533;DHT22;27262;-35.248;149.138;2023-07-20T13:35:18;17.20;57.90
41533;DHT22;27262;-35.248;149.138;2023-07-20T13:37:48;17.20;57.90
41533;DHT22;27262;-35.248;149.138;2023-07-20T13:40:19;17.20;58.00
41533;DHT22;27262;-35.248;149.138;2023-07-20T13:42:52;17.10;57.90
41533;DHT22;27262;-35.248;149.138;2023-07-20T13:45:22;17.10;57.90
41533;DHT22;27262;-35.248;149.138;2023-07-20T13:47:53;17.10;58.00
41533;DHT22;27262;-35.248;149.138;2023-07-20T13:50:23;17.10;58.00
41533;DHT22;27262;-35.248;149.138;2023-07-20T13:53:07;17.00;58.00
41533;DHT22;27262;-35.248;149.138;2023-07-20T13:55:40;17.00;58.10
41533;DHT22;27262;-35.248;149.138;2023-07-20T13:58:13;17.00;58.10
41533;DHT22;27262;-35.248;149.138;2023-07-20T14:00:44;17.00;58.10
41533;DHT22;27262;-35.248;149.138;2023-07-20T14:03:15;16.90;58.10
41533;DHT22;27262;-35.248;149.138;2023-07-20T14:05:47;17.00;58.20
41533;DHT22;27262;-35.248;149.138;2023-07-20T14:08:26;16.90;58.10
41533;DHT22;27262;-35.248;149.138;2023-07-20T14:10:59;16.90;58.20
41533;DHT22;27262;-35.248;149.138;2023-07-20T14:13:32;16.90;58.20
41533;DHT22;27262;-35.248;149.138;2023-07-20T14:16:14;16.90;58.20
41533;DHT22;27262;-35.248;149.138;2023-07-20T14:18:47;16.80;58.20
41533;DHT22;27262;-35.248;149.138;2023-07-20T14:21:20;16.90;58.30
41533;DHT22;27262;-35.248;149.138;2023-07-20T14:23:52;16.80;58.20
41533;DHT22;27262;-35.248;149.138;2023-07-20T14:26:23;16.80;58.30
41533;DHT22;27262;-35.248;149.138;2023-07-20T14:28:54;16.80;58.30
41533;DHT22;27262;-35.248;149.138;2023-07-20T14:31:26;16.70;58.30
41533;DHT22;27262;-35.248;149.138;2023-07-20T14:33:56;16.70;58.30
41533;DHT22;27262;-35.248;149.138;2023-07-20T14:36:27;16.70;58.30
41533;DHT22;27262;-35.248;149.138;2023-07-20T14:39:01;16.70;58.40
41533;DHT22;27262;-35.248;149.138;2023-07-20T14:41:31;16.70;58.40
41533;DHT22;27262;-35.248;149.138;2023-07-20T14:44:01;16.70;58.40
41533;DHT22;27262;-35.248;149.138;2023-07-20T14:46:32;16.60;58.40
41533;DHT22;27262;-35.248;149.138;2023-07-20T14:49:03;16.60;58.40
41533;DHT22;27262;-35.248;149.138;2023-07-20T14:51:33;16.60;58.50
41533;DHT22;27262;-35.248;149.138;2023-07-20T14:54:07;16.60;58.50
41533;DHT22;27262;-35.248;149.138;2023-07-20T14:56:39;16.60;58.50
41533;DHT22;27262;-35.248;149.138;2023-07-20T14:59:13;16.60;58.50
41533;DHT22;27262;-35.248;149.138;2023-07-20T15:01:44;16.50;58.50
41533;DHT22;27262;-35.248;149.138;2023-07-20T15:04:17;16.60;58.60
41533;DHT22;27262;-35.248;149.138;2023-07-20T15:06:47;16.50;58.60
41533;DHT22;27262;-35.248;149.138;2023-07-20T15:09:18;16.50;58.60
41533;DHT22;27262;-35.248;149.138;2023-07-20T15:11:48;16.50;58.60
41533;DHT22;27262;-35.248;149.138;2023-07-20T15:14:19;16.50;58.60
41533;DHT22;27262;-35.248;149.138;2023-07-20T15:16:49;16.50;58.70
41533;DHT22;27262;-35.248;149.138;2023-07-20T15:19:20;16.40;58.60
41533;DHT22;27262;-35.248;149.138;2023-07-20T15:22:09;16.50;58.70
41533;DHT22;27262;-35.248;149.138;2023-07-20T15:24:40;16.40;58.70
41533;DHT22;27262;-35.248;149.138;2023-07-20T15:27:11;16.40;58.70
41533;DHT22;27262;-35.248;149.138;2023-07-20T15:29:41;16.40;58.70
41533;DHT22;27262;-35.248;149.138;2023-07-20T15:32:12;16.40;58.80
41533;DHT22;27262;-35.248;149.138;2023-07-20T15:34:42;16.40;58.80